sensor_id;sensor_type;location;lat;lon;timestamp;temperature;humidity
18384;DHT22;9318;48.644;9.456;2022-07-23T00:00:42;23.80;99.90
18384;DHT22;9318;48.644;9.456;2022-07-23T00:03:11;23.70;99.90
18384;DHT22;9318;48.644;9.456;2022-07-23T00:05:39;23.60;99.90
18384;DHT22;9318;48.644;9.456;2022-07-23T00:08:06;23.60;99.90
18384;DHT22;9318;48.644;9.456;2022-07-23T00:10:34;23.50;99.90
18384;DHT22;9318;48.644;9.456;2022-07-23T00:13:01;23.40;99.90
18384;DHT22;9318;48.644;9.456;2022-07-23T00:15:28;23.40;99.90
18384;DHT22;9318;48.644;9.456;2022-07-23T00:17:56;23.30;99.90
18384;DHT22;9318;48.644;9.456;2022-07-23T00:20:24;23.30;99.90
18384;DHT22;9318;48.644;9.456;2022-07-23T00:22:54;23.20;99.90
18384;DHT22;9318;48.644;9.456;2022-07-23T00:25:22;23.20;99.90
18384;DHT22;9318;48.644;9.456;2022-07-23T00:27:49;23.10;99.90
18384;DHT22;9318;48.644;9.456;2022-07-23T00:30:16;23.10;99.90
18384;DHT22;9318;48.644;9.456;2022-07-23T00:32:49;23.00;99.90
18384;DHT22;9318;48.644;9.456;2022-07-23T00:35:19;23.00;99.90
18384;DHT22;9318;48.644;9.456;2022-07-23T00:37:48;23.00;99.90
18384;DHT22;9318;48.644;9.456;2022-07-23T00:40:15;23.00;99.90
18384;DHT22;9318;48.644;9.456;2022-07-23T00:42:43;22.90;99.90
18384;DHT22;9318;48.644;9.456;2022-07-23T00:45:11;22.90;99.90
18384;DHT22;9318;48.644;9.456;2022-07-23T00:47:38;22.90;99.90
18384;DHT22;9318;48.644;9.456;2022-07-23T00:50:07;22.80;99.90
18384;DHT22;9318;48.644;9.456;2022-07-23T00:52:36;22.80;99.90
18384;DHT22;9318;48.644;9.456;2022-07-23T00:55:07;22.80;99.90
18384;DHT22;9318;48.644;9.456;2022-07-23T00:57:35;22.80;99.90
18384;DHT22;9318;48.644;9.456;2022-07-23T01:00:04;22.80;99.90
18384;DHT22;9318;48.644;9.456;2022-07-23T01:02:32;22.80;99.90
18384;DHT22;9318;48.644;9.456;2022-07-23T01:05:00;22.80;99.90
18384;DHT22;9318;48.644;9.456;2022-07-23T01:07:27;22.80;99.90
18384;DHT22;9318;48.644;9.456;2022-07-23T01:09:55;22.80;99.90
18384;DHT22;9318;48.644;9.456;2022-07-23T01:12:23;22.70;99.90
18384;DHT22;9318;48.644;9.456;2022-07-23T01:14:54;22.80;99.90
18384;DHT22;9318;48.644;9.456;2022-07-23T01:17:22;22.80;99.90
18384;DHT22;9318;48.644;9.456;2022-07-23T01:19:49;22.70;99.90
18384;DHT22;9318;48.644;9.456;2022-07-23T01:22:18;22.60;99.90
18384;DHT22;9318;48.644;9.456;2022-07-23T01:24:47;22.60;99.90
18384;DHT22;9318;48.644;9.456;2022-07-23T01:27:15;22.60;99.90
18384;DHT22;9318;48.644;9.456;2022-07-23T01:29:43;22.60;99.90
18384;DHT22;9318;48.644;9.456;2022-07-23T01:32:10;22.60;99.90
18384;DHT22;9318;48.644;9.456;2022-07-23T01:34:37;22.60;99.90
18384;DHT22;9318;48.644;9.456;2022-07-23T01:37:06;22.50;99.90
18384;DHT22;9318;48.644;9.456;2022-07-23T01:39:33;22.50;99.90
18384;DHT22;9318;48.644;9.456;2022-07-23T01:42:02;22.50;99.90
18384;DHT22;9318;48.644;9.456;2022-07-23T01:44:29;22.40;99.90
18384;DHT22;9318;48.644;9.456;2022-07-23T01:46:57;22.40;99.90
18384;DHT22;9318;48.644;9.456;2022-07-23T01:49:24;22.30;99.90
18384;DHT22;9318;48.644;9.456;2022-07-23T01:51:51;22.30;99.90
18384;DHT22;9318;48.644;9.456;2022-07-23T01:54:29;22.30;99.90
18384;DHT22;9318;48.644;9.456;2022-07-23T01:56:57;22.30;99.90
18384;DHT22;9318;48.644;9.456;2022-07-23T01:59:27;22.20;99.90
18384;DHT22;9318;48.644;9.456;2022-07-23T02:01:55;22.20;99.90
18384;DHT22;9318;48.644;9.456;2022-07-23T02:04:23;22.00;99.90
18384;DHT22;9318;48.644;9.456;2022-07-23T02:06:51;22.00;99.90
18384;DHT22;9318;48.644;9.456;2022-07-23T02:09:18;22.00;99.90
18384;DHT22;9318;48.644;9.456;2022-07-23T02:11:46;22.00;99.90
18384;DHT22;9318;48.644;9.456;2022-07-23T02:14:13;22.00;99.90
18384;DHT22;9318;48.644;9.456;2022-07-23T02:16:41;22.00;99.90
18384;DHT22;9318;48.644;9.456;2022-07-23T02:19:08;22.00;99.90
18384;DHT22;9318;48.644;9.456;2022-07-23T02:21:36;22.00;99.90
18384;DHT22;9318;48.644;9.456;2022-07-23T02:24:03;21.90;99.90
18384;DHT22;9318;48.644;9.456;2022-07-23T02:26:30;21.90;99.90
18384;DHT22;9318;48.644;9.456;2022-07-23T02:29:00;21.90;99.90
18384;DHT22;9318;48.644;9.456;2022-07-23T02:31:28;21.90;99.90
18384;DHT22;9318;48.644;9.456;2022-07-23T02:33:57;21.90;99.90
18384;DHT22;9318;48.644;9.456;2022-07-23T02:36:24;21.90;99.90
18384;DHT22;9318;48.644;9.456;2022-07-23T02:38:51;21.90;99.90
18384;DHT22;9318;48.644;9.456;2022-07-23T02:41:19;21.90;99.90
18384;DHT22;9318;48.644;9.456;2022-07-23T02:43:46;21.90;99.90
18384;DHT22;9318;48.644;9.456;2022-07-23T02:46:13;21.90;99.90
18384;DHT22;9318;48.644;9.456;2022-07-23T02:48:40;21.90;99.90
18384;DHT22;9318;48.644;9.456;2022-07-23T02:51:09;21.90;99.90
18384;DHT22;9318;48.644;9.456;2022-07-23T02:53:36;21.90;99.90
18384;DHT22;9318;48.644;9.456;2022-07-23T02:56:04;21.90;99.90
18384;DHT22;9318;48.644;9.456;2022-07-23T02:58:31;21.90;99.90
18384;DHT22;9318;48.644;9.456;2022-07-23T03:00:58;21.90;99.90
18384;DHT22;9318;48.644;9.456;2022-07-23T03:03:25;21.90;99.90
18384;DHT22;9318;48.644;9.456;2022-07-23T03:05:53;21.80;99.90
18384;DHT22;9318;48.644;9.456;2022-07-23T03:08:21;21.80;99.90
18384;DHT22;9318;48.644;9.456;2022-07-23T03:10:48;21.80;99.90
18384;DHT22;9318;48.644;9.456;2022-07-23T03:13:16;21.70;99.90
18384;DHT22;9318;48.644;9.456;2022-07-23T03:15:43;21.80;99.90
18384;DHT22;9318;48.644;9.456;2022-07-23T03:18:10;21.80;99.90
18384;DHT22;9318;48.644;9.456;2022-07-23T03:20:37;21.70;99.90
18384;DHT22;9318;48.644;9.456;2022-07-23T03:23:05;21.70;99.90
18384;DHT22;9318;48.644;9.456;2022-07-23T03:25:33;21.70;99.90
18384;DHT22;9318;48.644;9.456;2022-07-23T03:28:00;21.70;99.90
18384;DHT22;9318;48.644;9.456;2022-07-23T03:30:28;21.60;99.90
18384;DHT22;9318;48.644;9.456;2022-07-23T03:32:55;21.60;99.90
18384;DHT22;9318;48.644;9.456;2022-07-23T03:35:22;21.60;99.90
18384;DHT22;9318;48.644;9.456;2022-07-23T03:37:49;21.60;99.90
18384;DHT22;9318;48.644;9.456;2022-07-23T03:40:17;21.60;99.90
18384;DHT22;9318;48.644;9.456;2022-07-23T03:42:45;21.60;99.90
18384;DHT22;9318;48.644;9.456;2022-07-23T03:45:13;21.50;99.90
18384;DHT22;9318;48.644;9.456;2022-07-23T03:47:40;21.50;99.90
18384;DHT22;9318;48.644;9.456;2022-07-23T03:50:08;21.50;99.90
18384;DHT22;9318;48.644;9.456;2022-07-23T03:52:35;21.50;99.90
18384;DHT22;9318;48.644;9.456;2022-07-23T03:55:03;21.40;99.90
18384;DHT22;9318;48.644;9.456;2022-07-23T03:57:30;21.40;99.90
18384;DHT22;9318;48.644;9.456;2022-07-23T03:59:59;21.40;99.90
18384;DHT22;9318;48.644;9.456;2022-07-23T04:02:26;21.30;99.90
18384;DHT22;9318;48.644;9.456;2022-07-23T04:04:53;21.30;99.90
18384;DHT22;9318;48.644;9.456;2022-07-23T04:07:21;21.30;99.90
18384;DHT22;9318;48.644;9.456;2022-07-23T04:09:48;21.30;99.90
18384;DHT22;9318;48.644;9.456;2022-07-23T04:12:15;21.20;99.90
18384;DHT22;9318;48.644;9.456;2022-07-23T04:14:42;21.20;99.90
18384;DHT22;9318;48.644;9.456;2022-07-23T04:17:11;21.20;99.90
18384;DHT22;9318;48.644;9.456;2022-07-23T04:19:38;21.20;99.90
18384;DHT22;9318;48.644;9.456;2022-07-23T04:22:07;21.10;99.90
18384;DHT22;9318;48.644;9.456;2022-07-23T04:24:35;21.10;99.90
18384;DHT22;9318;48.644;9.456;2022-07-23T04:27:02;21.10;99.90
18384;DHT22;9318;48.644;9.456;2022-07-23T04:29:30;21.10;99.90
18384;DHT22;9318;48.644;9.456;2022-07-23T04:31:57;21.10;99.90
18384;DHT22;9318;48.644;9.456;2022-07-23T04:34:26;21.10;99.90
18384;DHT22;9318;48.644;9.456;2022-07-23T04:36:53;21.20;99.90
18384;DHT22;9318;48.644;9.456;2022-07-23T04:39:20;21.10;99.90
18384;DHT22;9318;48.644;9.456;2022-07-23T04:41:47;21.10;99.90
18384;DHT22;9318;48.644;9.456;2022-07-23T04:44:15;21.10;99.90
18384;DHT22;9318;48.644;9.456;2022-07-23T04:46:42;21.10;99.90
18384;DHT22;9318;48.644;9.456;2022-07-23T04:49:09;21.10;99.90
18384;DHT22;9318;48.644;9.456;2022-07-23T04:51:38;21.10;99.90
18384;DHT22;9318;48.644;9.456;2022-07-23T04:54:05;21.20;99.90
18384;DHT22;9318;48.644;9.456;2022-07-23T04:56:32;21.20;99.90
18384;DHT22;9318;48.644;9.456;2022-07-23T04:58:59;21.20;99.90
18384;DHT22;9318;48.644;9.456;2022-07-23T05:01:26;21.20;99.90
18384;DHT22;9318;48.644;9.456;2022-07-23T05:03:53;21.20;99.90
18384;DHT22;9318;48.644;9.456;2022-07-23T05:06:21;21.30;99.90
18384;DHT22;9318;48.644;9.456;2022-07-23T05:08:50;21.30;99.90
18384;DHT22;9318;48.644;9.456;2022-07-23T05:11:17;21.30;99.90
18384;DHT22;9318;48.644;9.456;2022-07-23T05:13:44;21.40;99.90
18384;DHT22;9318;48.644;9.456;2022-07-23T05:16:11;21.50;99.90
18384;DHT22;9318;48.644;9.456;2022-07-23T05:18:38;21.60;99.90
18384;DHT22;9318;48.644;9.456;2022-07-23T05:21:06;21.70;99.90
18384;DHT22;9318;48.644;9.456;2022-07-23T05:23:33;21.80;99.90
18384;DHT22;9318;48.644;9.456;2022-07-23T05:26:01;21.90;99.90
18384;DHT22;9318;48.644;9.456;2022-07-23T05:28:29;21.90;99.90
18384;DHT22;9318;48.644;9.456;2022-07-23T05:30:56;21.90;99.90
18384;DHT22;9318;48.644;9.456;2022-07-23T05:33:23;21.90;99.90
18384;DHT22;9318;48.644;9.456;2022-07-23T05:35:50;21.90;99.90
18384;DHT22;9318;48.644;9.456;2022-07-23T05:38:18;21.90;99.90
18384;DHT22;9318;48.644;9.456;2022-07-23T05:40:45;22.00;99.90
18384;DHT22;9318;48.644;9.456;2022-07-23T05:43:14;22.00;99.90
18384;DHT22;9318;48.644;9.456;2022-07-23T05:45:41;22.00;99.90
18384;DHT22;9318;48.644;9.456;2022-07-23T05:48:08;22.10;99.90
18384;DHT22;9318;48.644;9.456;2022-07-23T05:50:35;22.10;99.90
18384;DHT22;9318;48.644;9.456;2022-07-23T05:53:02;22.10;99.90
18384;DHT22;9318;48.644;9.456;2022-07-23T05:55:30;22.10;99.90
18384;DHT22;9318;48.644;9.456;2022-07-23T05:57:57;22.20;99.90
18384;DHT22;9318;48.644;9.456;2022-07-23T06:00:26;22.20;99.90
18384;DHT22;9318;48.644;9.456;2022-07-23T06:02:54;22.20;99.90
18384;DHT22;9318;48.644;9.456;2022-07-23T06:05:21;22.30;99.90
18384;DHT22;9318;48.644;9.456;2022-07-23T06:07:49;22.30;99.90
18384;DHT22;9318;48.644;9.456;2022-07-23T06:10:16;22.40;99.90
18384;DHT22;9318;48.644;9.456;2022-07-23T06:12:44;22.50;99.90
18384;DHT22;9318;48.644;9.456;2022-07-23T06:15:11;22.50;99.90
18384;DHT22;9318;48.644;9.456;2022-07-23T06:17:40;22.50;99.90
18384;DHT22;9318;48.644;9.456;2022-07-23T06:20:08;22.60;99.90
18384;DHT22;9318;48.644;9.456;2022-07-23T06:22:36;22.60;99.90
18384;DHT22;9318;48.644;9.456;2022-07-23T06:25:04;22.70;99.90
18384;DHT22;9318;48.644;9.456;2022-07-23T06:27:31;22.70;99.90
18384;DHT22;9318;48.644;9.456;2022-07-23T06:29:58;22.70;99.90
18384;DHT22;9318;48.644;9.456;2022-07-23T06:32:26;22.70;99.90
18384;DHT22;9318;48.644;9.456;2022-07-23T06:34:54;22.70;99.90
18384;DHT22;9318;48.644;9.456;2022-07-23T06:37:21;22.70;99.90
18384;DHT22;9318;48.644;9.456;2022-07-23T06:39:49;22.70;99.90
18384;DHT22;9318;48.644;9.456;2022-07-23T06:42:16;22.80;99.90
18384;DHT22;9318;48.644;9.456;2022-07-23T06:44:43;22.80;99.90
18384;DHT22;9318;48.644;9.456;2022-07-23T06:47:10;22.90;99.90
18384;DHT22;9318;48.644;9.456;2022-07-23T06:49:37;22.90;99.90
18384;DHT22;9318;48.644;9.456;2022-07-23T06:52:08;23.00;99.90
18384;DHT22;9318;48.644;9.456;2022-07-23T06:54:35;23.00;99.90
18384;DHT22;9318;48.644;9.456;2022-07-23T06:57:03;23.10;99.90
18384;DHT22;9318;48.644;9.456;2022-07-23T06:59:30;23.10;99.90
18384;DHT22;9318;48.644;9.456;2022-07-23T07:01:57;23.20;99.90
18384;DHT22;9318;48.644;9.456;2022-07-23T07:04:24;23.30;99.90
18384;DHT22;9318;48.644;9.456;2022-07-23T07:06:51;23.40;99.90
18384;DHT22;9318;48.644;9.456;2022-07-23T07:09:20;23.50;99.90
18384;DHT22;9318;48.644;9.456;2022-07-23T07:11:47;23.60;99.90
18384;DHT22;9318;48.644;9.456;2022-07-23T07:14:14;23.70;99.90
18384;DHT22;9318;48.644;9.456;2022-07-23T07:16:42;23.80;99.90
18384;DHT22;9318;48.644;9.456;2022-07-23T07:19:09;23.90;99.90
18384;DHT22;9318;48.644;9.456;2022-07-23T07:21:36;24.00;99.90
18384;DHT22;9318;48.644;9.456;2022-07-23T07:24:04;24.00;99.90
18384;DHT22;9318;48.644;9.456;2022-07-23T07:26:33;24.10;99.90
18384;DHT22;9318;48.644;9.456;2022-07-23T07:29:01;24.10;99.90
18384;DHT22;9318;48.644;9.456;2022-07-23T07:31:28;24.20;99.90
18384;DHT22;9318;48.644;9.456;2022-07-23T07:33:55;24.30;99.90
18384;DHT22;9318;48.644;9.456;2022-07-23T07:36:23;24.40;99.90
18384;DHT22;9318;48.644;9.456;2022-07-23T07:38:51;24.40;99.90
18384;DHT22;9318;48.644;9.456;2022-07-23T07:41:18;24.50;99.90
18384;DHT22;9318;48.644;9.456;2022-07-23T07:43:50;24.50;99.90
18384;DHT22;9318;48.644;9.456;2022-07-23T07:46:17;24.50;99.90
18384;DHT22;9318;48.644;9.456;2022-07-23T07:48:44;24.50;99.90
18384;DHT22;9318;48.644;9.456;2022-07-23T07:51:12;24.50;99.90
18384;DHT22;9318;48.644;9.456;2022-07-23T07:53:39;24.50;99.90
18384;DHT22;9318;48.644;9.456;2022-07-23T07:56:07;24.60;99.90
18384;DHT22;9318;48.644;9.456;2022-07-23T07:58:34;24.60;99.90
18384;DHT22;9318;48.644;9.456;2022-07-23T08:01:03;24.80;99.90
18384;DHT22;9318;48.644;9.456;2022-07-23T08:03:30;24.90;99.90
18384;DHT22;9318;48.644;9.456;2022-07-23T08:05:57;24.90;99.90
18384;DHT22;9318;48.644;9.456;2022-07-23T08:08:25;25.00;99.90
18384;DHT22;9318;48.644;9.456;2022-07-23T08:10:52;25.10;99.90
18384;DHT22;9318;48.644;9.456;2022-07-23T08:13:19;25.20;99.90
18384;DHT22;9318;48.644;9.456;2022-07-23T08:15:46;25.30;99.90
18384;DHT22;9318;48.644;9.456;2022-07-23T08:18:15;25.40;99.90
18384;DHT22;9318;48.644;9.456;2022-07-23T08:20:42;25.50;99.90
18384;DHT22;9318;48.644;9.456;2022-07-23T08:23:10;25.60;99.90
18384;DHT22;9318;48.644;9.456;2022-07-23T08:25:38;25.70;99.90
18384;DHT22;9318;48.644;9.456;2022-07-23T08:28:08;25.80;99.90
18384;DHT22;9318;48.644;9.456;2022-07-23T08:30:36;25.90;99.90
18384;DHT22;9318;48.644;9.456;2022-07-23T08:33:06;26.00;99.90
18384;DHT22;9318;48.644;9.456;2022-07-23T08:35:40;26.10;99.90
18384;DHT22;9318;48.644;9.456;2022-07-23T08:38:09;26.20;99.90
18384;DHT22;9318;48.644;9.456;2022-07-23T08:40:38;26.10;99.90
18384;DHT22;9318;48.644;9.456;2022-07-23T08:43:08;26.10;99.90
18384;DHT22;9318;48.644;9.456;2022-07-23T08:45:37;26.10;99.90
18384;DHT22;9318;48.644;9.456;2022-07-23T08:48:07;26.00;99.90
18384;DHT22;9318;48.644;9.456;2022-07-23T08:50:35;25.90;99.90
18384;DHT22;9318;48.644;9.456;2022-07-23T08:53:07;26.00;99.90
18384;DHT22;9318;48.644;9.456;2022-07-23T08:55:34;26.10;99.90
18384;DHT22;9318;48.644;9.456;2022-07-23T08:58:02;26.20;99.90
18384;DHT22;9318;48.644;9.456;2022-07-23T09:00:30;26.40;99.90
18384;DHT22;9318;48.644;9.456;2022-07-23T09:02:58;26.50;99.90
18384;DHT22;9318;48.644;9.456;2022-07-23T09:05:25;26.70;99.90
18384;DHT22;9318;48.644;9.456;2022-07-23T09:08:11;26.80;99.90
18384;DHT22;9318;48.644;9.456;2022-07-23T09:10:50;26.80;99.90
18384;DHT22;9318;48.644;9.456;2022-07-23T09:13:31;26.70;99.90
18384;DHT22;9318;48.644;9.456;2022-07-23T09:16:01;26.70;99.90
18384;DHT22;9318;48.644;9.456;2022-07-23T09:18:33;26.70;99.90
18384;DHT22;9318;48.644;9.456;2022-07-23T09:21:12;26.70;99.90
18384;DHT22;9318;48.644;9.456;2022-07-23T09:23:43;26.70;99.90
18384;DHT22;9318;48.644;9.456;2022-07-23T09:26:18;26.70;99.90
18384;DHT22;9318;48.644;9.456;2022-07-23T09:28:54;26.80;99.90
18384;DHT22;9318;48.644;9.456;2022-07-23T09:31:23;27.00;99.90
18384;DHT22;9318;48.644;9.456;2022-07-23T09:33:51;27.00;99.90
18384;DHT22;9318;48.644;9.456;2022-07-23T09:36:36;27.20;99.90
18384;DHT22;9318;48.644;9.456;2022-07-23T09:39:06;27.30;99.90
18384;DHT22;9318;48.644;9.456;2022-07-23T09:41:42;27.30;99.90
18384;DHT22;9318;48.644;9.456;2022-07-23T09:44:12;27.50;99.90
18384;DHT22;9318;48.644;9.456;2022-07-23T09:46:40;27.60;99.90
18384;DHT22;9318;48.644;9.456;2022-07-23T09:49:15;27.50;99.90
18384;DHT22;9318;48.644;9.456;2022-07-23T09:51:51;27.50;99.90
18384;DHT22;9318;48.644;9.456;2022-07-23T09:54:32;27.40;99.90
18384;DHT22;9318;48.644;9.456;2022-07-23T09:57:03;27.40;99.90
18384;DHT22;9318;48.644;9.456;2022-07-23T09:59:33;27.70;99.90
18384;DHT22;9318;48.644;9.456;2022-07-23T10:02:01;28.00;99.90
18384;DHT22;9318;48.644;9.456;2022-07-23T10:04:30;28.10;99.90
18384;DHT22;9318;48.644;9.456;2022-07-23T10:06:59;28.00;99.90
18384;DHT22;9318;48.644;9.456;2022-07-23T10:09:30;28.20;99.90
18384;DHT22;9318;48.644;9.456;2022-07-23T10:12:00;28.30;99.90
18384;DHT22;9318;48.644;9.456;2022-07-23T10:14:44;28.40;99.90
18384;DHT22;9318;48.644;9.456;2022-07-23T10:17:12;28.80;99.90
18384;DHT22;9318;48.644;9.456;2022-07-23T10:19:40;29.40;99.90
18384;DHT22;9318;48.644;9.456;2022-07-23T10:22:09;30.00;99.90
18384;DHT22;9318;48.644;9.456;2022-07-23T10:24:55;30.40;99.90
18384;DHT22;9318;48.644;9.456;2022-07-23T10:27:46;30.70;98.90
18384;DHT22;9318;48.644;9.456;2022-07-23T10:30:18;30.90;97.10
18384;DHT22;9318;48.644;9.456;2022-07-23T10:32:56;30.90;97.20
18384;DHT22;9318;48.644;9.456;2022-07-23T10:35:33;31.20;96.70
18384;DHT22;9318;48.644;9.456;2022-07-23T10:38:11;31.40;96.10
18384;DHT22;9318;48.644;9.456;2022-07-23T10:40:54;31.80;95.70
18384;DHT22;9318;48.644;9.456;2022-07-23T10:43:22;32.10;94.30
18384;DHT22;9318;48.644;9.456;2022-07-23T10:45:50;32.30;94.20
18384;DHT22;9318;48.644;9.456;2022-07-23T10:48:18;32.30;92.90
18384;DHT22;9318;48.644;9.456;2022-07-23T10:51:07;32.30;93.00
18384;DHT22;9318;48.644;9.456;2022-07-23T10:53:55;32.10;92.30
18384;DHT22;9318;48.644;9.456;2022-07-23T10:57:04;31.90;92.50
18384;DHT22;9318;48.644;9.456;2022-07-23T11:00:16;31.80;91.80
18384;DHT22;9318;48.644;9.456;2022-07-23T11:02:45;31.70;91.90
18384;DHT22;9318;48.644;9.456;2022-07-23T11:05:14;31.60;92.60
18384;DHT22;9318;48.644;9.456;2022-07-23T11:10:56;31.50;91.90
18384;DHT22;9318;48.644;9.456;2022-07-23T11:13:47;31.30;91.90
18384;DHT22;9318;48.644;9.456;2022-07-23T11:16:25;31.60;91.20
18384;DHT22;9318;48.644;9.456;2022-07-23T11:19:09;32.20;91.10
18384;DHT22;9318;48.644;9.456;2022-07-23T11:21:49;32.80;90.40
18384;DHT22;9318;48.644;9.456;2022-07-23T11:24:21;33.20;88.60
18384;DHT22;9318;48.644;9.456;2022-07-23T11:27:00;33.00;87.60
18384;DHT22;9318;48.644;9.456;2022-07-23T11:29:45;33.30;87.40
18384;DHT22;9318;48.644;9.456;2022-07-23T11:32:28;33.50;85.10
18384;DHT22;9318;48.644;9.456;2022-07-23T11:34:55;33.60;85.00
18384;DHT22;9318;48.644;9.456;2022-07-23T11:37:34;33.50;84.00
18384;DHT22;9318;48.644;9.456;2022-07-23T11:40:04;33.60;84.00
18384;DHT22;9318;48.644;9.456;2022-07-23T11:42:32;33.90;83.20
18384;DHT22;9318;48.644;9.456;2022-07-23T11:45:02;34.10;82.30
18384;DHT22;9318;48.644;9.456;2022-07-23T11:47:29;33.70;82.40
18384;DHT22;9318;48.644;9.456;2022-07-23T11:49:58;33.60;80.00
18384;DHT22;9318;48.644;9.456;2022-07-23T11:52:26;33.70;79.90
18384;DHT22;9318;48.644;9.456;2022-07-23T11:54:57;33.90;79.70
18384;DHT22;9318;48.644;9.456;2022-07-23T11:57:26;34.20;79.50
18384;DHT22;9318;48.644;9.456;2022-07-23T11:59:56;34.30;76.50
18384;DHT22;9318;48.644;9.456;2022-07-23T12:02:25;34.40;77.10
18384;DHT22;9318;48.644;9.456;2022-07-23T12:04:52;34.50;77.20
18384;DHT22;9318;48.644;9.456;2022-07-23T12:07:28;34.00;74.20
18384;DHT22;9318;48.644;9.456;2022-07-23T12:09:57;33.90;77.20
18384;DHT22;9318;48.644;9.456;2022-07-23T12:12:24;33.80;75.10
18384;DHT22;9318;48.644;9.456;2022-07-23T12:14:54;34.10;75.50
18384;DHT22;9318;48.644;9.456;2022-07-23T12:17:28;34.10;75.20
18384;DHT22;9318;48.644;9.456;2022-07-23T12:19:57;34.70;76.30
18384;DHT22;9318;48.644;9.456;2022-07-23T12:22:26;35.30;74.90
18384;DHT22;9318;48.644;9.456;2022-07-23T12:25:02;36.00;72.80
18384;DHT22;9318;48.644;9.456;2022-07-23T12:27:30;36.30;71.20
18384;DHT22;9318;48.644;9.456;2022-07-23T12:29:58;36.40;70.10
18384;DHT22;9318;48.644;9.456;2022-07-23T12:32:27;36.50;69.80
18384;DHT22;9318;48.644;9.456;2022-07-23T12:35:07;36.40;70.10
18384;DHT22;9318;48.644;9.456;2022-07-23T12:37:36;36.50;68.70
18384;DHT22;9318;48.644;9.456;2022-07-23T12:40:20;36.70;67.90
18384;DHT22;9318;48.644;9.456;2022-07-23T12:42:49;36.00;68.90
18384;DHT22;9318;48.644;9.456;2022-07-23T12:45:16;35.70;69.80
18384;DHT22;9318;48.644;9.456;2022-07-23T12:47:59;35.80;69.40
18384;DHT22;9318;48.644;9.456;2022-07-23T12:50:40;36.10;68.80
18384;DHT22;9318;48.644;9.456;2022-07-23T12:53:10;35.90;68.00
18384;DHT22;9318;48.644;9.456;2022-07-23T12:55:39;35.30;67.20
18384;DHT22;9318;48.644;9.456;2022-07-23T12:58:09;35.40;67.10
18384;DHT22;9318;48.644;9.456;2022-07-23T13:01:01;35.60;67.40
18384;DHT22;9318;48.644;9.456;2022-07-23T13:03:32;36.40;67.20
18384;DHT22;9318;48.644;9.456;2022-07-23T13:06:01;37.00;65.50
18384;DHT22;9318;48.644;9.456;2022-07-23T13:08:30;37.50;62.90
18384;DHT22;9318;48.644;9.456;2022-07-23T13:10:58;37.40;64.20
18384;DHT22;9318;48.644;9.456;2022-07-23T13:13:27;37.10;61.90
18384;DHT22;9318;48.644;9.456;2022-07-23T13:15:55;36.60;65.40
18384;DHT22;9318;48.644;9.456;2022-07-23T13:18:23;36.60;65.10
18384;DHT22;9318;48.644;9.456;2022-07-23T13:20:50;36.80;64.60
18384;DHT22;9318;48.644;9.456;2022-07-23T13:23:19;36.80;64.40
18384;DHT22;9318;48.644;9.456;2022-07-23T13:25:47;37.10;64.20
18384;DHT22;9318;48.644;9.456;2022-07-23T13:28:16;37.50;63.40
18384;DHT22;9318;48.644;9.456;2022-07-23T13:30:44;37.70;62.30
18384;DHT22;9318;48.644;9.456;2022-07-23T13:33:12;38.10;62.10
18384;DHT22;9318;48.644;9.456;2022-07-23T13:35:39;38.10;60.70
18384;DHT22;9318;48.644;9.456;2022-07-23T13:38:06;37.80;60.10
18384;DHT22;9318;48.644;9.456;2022-07-23T13:40:37;37.10;61.90
18384;DHT22;9318;48.644;9.456;2022-07-23T13:43:06;36.40;61.20
18384;DHT22;9318;48.644;9.456;2022-07-23T13:45:34;35.90;64.10
18384;DHT22;9318;48.644;9.456;2022-07-23T13:48:01;36.00;63.70
18384;DHT22;9318;48.644;9.456;2022-07-23T13:50:29;35.90;65.30
18384;DHT22;9318;48.644;9.456;2022-07-23T13:52:56;35.60;65.30
18384;DHT22;9318;48.644;9.456;2022-07-23T13:55:24;35.60;64.20
18384;DHT22;9318;48.644;9.456;2022-07-23T13:57:53;35.90;65.00
18384;DHT22;9318;48.644;9.456;2022-07-23T14:00:20;36.20;63.50
18384;DHT22;9318;48.644;9.456;2022-07-23T14:02:47;36.60;63.80
18384;DHT22;9318;48.644;9.456;2022-07-23T14:05:14;36.90;62.40
18384;DHT22;9318;48.644;9.456;2022-07-23T14:07:42;37.00;63.20
18384;DHT22;9318;48.644;9.456;2022-07-23T14:10:10;37.00;62.90
18384;DHT22;9318;48.644;9.456;2022-07-23T14:12:38;36.70;61.40
18384;DHT22;9318;48.644;9.456;2022-07-23T14:15:07;36.10;63.70
18384;DHT22;9318;48.644;9.456;2022-07-23T14:17:38;35.50;64.10
18384;DHT22;9318;48.644;9.456;2022-07-23T14:20:07;34.70;66.50
18384;DHT22;9318;48.644;9.456;2022-07-23T14:22:35;33.80;65.50
18384;DHT22;9318;48.644;9.456;2022-07-23T14:25:03;33.30;68.00
18384;DHT22;9318;48.644;9.456;2022-07-23T14:27:31;32.80;68.90
18384;DHT22;9318;48.644;9.456;2022-07-23T14:29:58;32.30;71.10
18384;DHT22;9318;48.644;9.456;2022-07-23T14:32:27;32.00;72.40
18384;DHT22;9318;48.644;9.456;2022-07-23T14:34:54;31.50;74.50
18384;DHT22;9318;48.644;9.456;2022-07-23T14:37:21;31.10;74.20
18384;DHT22;9318;48.644;9.456;2022-07-23T14:39:50;30.80;74.80
18384;DHT22;9318;48.644;9.456;2022-07-23T14:42:18;30.70;76.30
18384;DHT22;9318;48.644;9.456;2022-07-23T14:44:46;30.50;76.10
18384;DHT22;9318;48.644;9.456;2022-07-23T14:47:13;30.30;75.80
18384;DHT22;9318;48.644;9.456;2022-07-23T14:49:42;30.10;76.80
18384;DHT22;9318;48.644;9.456;2022-07-23T14:52:09;30.00;79.40
18384;DHT22;9318;48.644;9.456;2022-07-23T14:54:36;30.00;78.80
18384;DHT22;9318;48.644;9.456;2022-07-23T14:57:04;29.90;77.30
18384;DHT22;9318;48.644;9.456;2022-07-23T14:59:33;29.90;79.60
18384;DHT22;9318;48.644;9.456;2022-07-23T15:02:00;30.10;77.70
18384;DHT22;9318;48.644;9.456;2022-07-23T15:04:28;30.50;79.10
18384;DHT22;9318;48.644;9.456;2022-07-23T15:06:56;30.70;77.20
18384;DHT22;9318;48.644;9.456;2022-07-23T15:09:25;31.30;75.80
18384;DHT22;9318;48.644;9.456;2022-07-23T15:11:52;32.00;74.40
18384;DHT22;9318;48.644;9.456;2022-07-23T15:14:19;32.90;73.70
18384;DHT22;9318;48.644;9.456;2022-07-23T15:16:47;34.10;70.40
18384;DHT22;9318;48.644;9.456;2022-07-23T15:19:15;35.10;66.90
18384;DHT22;9318;48.644;9.456;2022-07-23T15:21:42;35.80;63.30
18384;DHT22;9318;48.644;9.456;2022-07-23T15:24:11;35.90;64.40
18384;DHT22;9318;48.644;9.456;2022-07-23T15:26:38;35.90;66.20
18384;DHT22;9318;48.644;9.456;2022-07-23T15:29:06;36.10;63.30
18384;DHT22;9318;48.644;9.456;2022-07-23T15:31:33;36.40;63.90
18384;DHT22;9318;48.644;9.456;2022-07-23T15:34:01;36.80;62.70
18384;DHT22;9318;48.644;9.456;2022-07-23T15:36:28;37.60;62.30
18384;DHT22;9318;48.644;9.456;2022-07-23T15:38:55;38.50;60.60
18384;DHT22;9318;48.644;9.456;2022-07-23T15:41:24;38.80;59.10
18384;DHT22;9318;48.644;9.456;2022-07-23T15:43:51;38.10;58.00
18384;DHT22;9318;48.644;9.456;2022-07-23T15:46:20;37.30;59.40
18384;DHT22;9318;48.644;9.456;2022-07-23T15:48:49;37.10;59.00
18384;DHT22;9318;48.644;9.456;2022-07-23T15:51:16;37.20;62.00
18384;DHT22;9318;48.644;9.456;2022-07-23T15:53:44;38.00;60.50
18384;DHT22;9318;48.644;9.456;2022-07-23T15:56:11;38.80;58.10
18384;DHT22;9318;48.644;9.456;2022-07-23T15:58:40;38.90;58.30
18384;DHT22;9318;48.644;9.456;2022-07-23T16:01:07;38.00;58.60